createdAt,value
2023-02-06T00:00:18.570Z,99.99
2023-02-06T00:01:18.566Z,99.99
2023-02-06T00:02:18.564Z,99.99
2023-02-06T00:03:18.548Z,99.99
2023-02-06T00:04:18.533Z,99.99
2023-02-06T00:05:18.568Z,99.99
2023-02-06T00:06:18.508Z,99.99
2023-02-06T00:07:18.505Z,99.99
2023-02-06T00:08:18.492Z,99.99
2023-02-06T00:09:18.484Z,99.99
2023-02-06T00:10:18.472Z,99.99
2023-02-06T00:11:18.474Z,99.99
2023-02-06T00:12:18.446Z,99.99
2023-02-06T00:13:18.453Z,99.99
2023-02-06T00:14:18.434Z,99.99
2023-02-06T00:15:18.429Z,99.99
2023-02-06T00:16:18.437Z,99.99
2023-02-06T00:17:18.397Z,99.99
2023-02-06T00:18:18.387Z,99.99
2023-02-06T00:19:18.380Z,99.99
2023-02-06T00:20:18.380Z,99.99
2023-02-06T00:21:18.356Z,99.99
2023-02-06T00:22:18.345Z,99.99
2023-02-06T00:23:18.345Z,99.99
2023-02-06T00:24:18.322Z,99.99
2023-02-06T00:25:18.318Z,99.99
2023-02-06T00:26:18.309Z,99.99
2023-02-06T00:27:18.294Z,99.99
2023-02-06T00:28:18.319Z,99.99
2023-02-06T00:29:18.280Z,99.99
2023-02-06T00:30:18.264Z,99.99
2023-02-06T00:31:18.397Z,99.99
2023-02-06T00:32:18.248Z,99.99
2023-02-06T00:33:19.853Z,99.99
2023-02-06T00:34:18.221Z,99.99
2023-02-06T00:35:18.219Z,99.99
2023-02-06T00:36:18.207Z,99.99
2023-02-06T00:37:18.193Z,99.99
2023-02-06T00:38:18.188Z,99.99
2023-02-06T00:39:18.176Z,99.99
2023-02-06T00:40:18.158Z,99.99
2023-02-06T00:41:18.158Z,99.99
2023-02-06T00:42:18.140Z,99.99
2023-02-06T00:43:18.138Z,99.99
2023-02-06T00:44:18.120Z,99.99
2023-02-06T00:45:18.119Z,99.99
2023-02-06T00:46:18.123Z,99.99
2023-02-06T00:47:18.096Z,99.99
2023-02-06T00:48:18.091Z,99.99
2023-02-06T00:49:18.072Z,99.99
2023-02-06T00:50:18.058Z,99.99
2023-02-06T00:51:18.057Z,99.99
2023-02-06T00:52:18.044Z,99.99
2023-02-06T00:53:18.038Z,99.99
2023-02-06T00:54:18.017Z,99.99
2023-02-06T00:55:18.008Z,99.99
2023-02-06T00:56:17.997Z,99.99
2023-02-06T00:57:18.018Z,99.99
2023-02-06T00:58:17.994Z,99.99
2023-02-06T00:59:17.972Z,99.99
2023-02-06T01:00:17.972Z,99.99
2023-02-06T01:01:18.062Z,99.99
2023-02-06T01:02:17.931Z,99.99
2023-02-06T01:03:17.941Z,99.99
2023-02-06T01:04:17.912Z,99.99
2023-02-06T01:05:17.903Z,99.99
2023-02-06T01:06:17.891Z,99.99
2023-02-06T01:07:17.930Z,99.99
2023-02-06T01:08:17.872Z,99.99
2023-02-06T01:09:17.865Z,99.99
2023-02-06T01:10:17.845Z,99.99
2023-02-06T01:11:17.845Z,99.99
2023-02-06T01:12:17.824Z,99.99
2023-02-06T01:13:17.834Z,99.99
2023-02-06T01:14:17.812Z,99.99
2023-02-06T01:15:17.809Z,99.99
2023-02-06T01:16:17.813Z,99.99
2023-02-06T01:17:17.776Z,99.99
2023-02-06T01:18:17.770Z,99.99
2023-02-06T01:19:17.765Z,99.99
2023-02-06T01:20:17.742Z,99.99
2023-02-06T01:21:17.739Z,99.99
2023-02-06T01:22:17.721Z,99.99
2023-02-06T01:23:17.722Z,99.99
2023-02-06T01:24:17.700Z,99.99
2023-02-06T01:25:17.692Z,99.99
2023-02-06T01:26:17.678Z,99.99
2023-02-06T01:27:17.703Z,99.99
2023-02-06T01:28:17.702Z,99.99
2023-02-06T01:29:17.652Z,99.99
2023-02-06T01:30:17.640Z,99.99
2023-02-06T01:31:17.684Z,99.99
2023-02-06T01:32:17.633Z,99.99
2023-02-06T01:33:18.111Z,99.99
2023-02-06T01:34:17.598Z,99.99
2023-02-06T01:35:17.586Z,99.99
2023-02-06T01:36:17.622Z,99.99
2023-02-06T01:37:17.572Z,99.99
2023-02-06T01:38:17.557Z,99.99
2023-02-06T01:39:17.556Z,99.99
2023-02-06T01:40:17.546Z,99.99
2023-02-06T01:41:17.535Z,99.99
2023-02-06T01:42:17.513Z,99.99
2023-02-06T01:43:17.510Z,99.99
2023-02-06T01:44:17.501Z,99.99
2023-02-06T01:45:17.499Z,99.99
2023-02-06T01:46:17.511Z,99.99
2023-02-06T01:47:17.467Z,99.99
2023-02-06T01:48:17.452Z,99.99
2023-02-06T01:49:17.459Z,99.99
2023-02-06T01:50:17.431Z,99.99
2023-02-06T01:51:17.432Z,99.99
2023-02-06T01:52:17.413Z,99.99
2023-02-06T01:53:17.411Z,99.99
2023-02-06T01:54:17.405Z,99.99
2023-02-06T01:55:17.388Z,99.99
2023-02-06T01:56:17.372Z,99.99
2023-02-06T01:57:17.364Z,99.99
2023-02-06T01:58:17.355Z,99.99
2023-02-06T01:59:17.359Z,99.99
2023-02-06T02:00:17.332Z,99.99
2023-02-06T02:01:17.326Z,99.99
2023-02-06T02:02:17.435Z,99.99
2023-02-06T02:03:17.303Z,99.99
2023-02-06T02:04:17.301Z,99.99
2023-02-06T02:05:17.279Z,99.99
2023-02-06T02:06:17.272Z,99.99
2023-02-06T02:07:17.264Z,99.99
2023-02-06T02:08:17.246Z,99.99
2023-02-06T02:09:17.244Z,99.99
2023-02-06T02:10:17.226Z,99.99
2023-02-06T02:11:17.221Z,99.99
2023-02-06T02:12:17.222Z,99.99
2023-02-06T02:13:17.210Z,99.99
2023-02-06T02:14:17.196Z,99.99
2023-02-06T02:15:17.180Z,99.99
2023-02-06T02:16:17.250Z,99.99
2023-02-06T02:17:17.184Z,99.99
2023-02-06T02:18:17.164Z,99.99
2023-02-06T02:19:17.149Z,99.99
2023-02-06T02:20:17.129Z,99.99
2023-02-06T02:21:17.128Z,99.99
2023-02-06T02:22:17.109Z,99.99
2023-02-06T02:23:17.104Z,99.99
2023-02-06T02:24:17.096Z,99.99
2023-02-06T02:25:17.083Z,99.99
2023-02-06T02:26:17.069Z,99.99
2023-02-06T02:27:17.063Z,99.99
2023-02-06T02:28:17.065Z,99.99
2023-02-06T02:29:17.154Z,99.99
2023-02-06T02:30:17.133Z,99.99
2023-02-06T02:31:17.089Z,99.99
2023-02-06T02:32:17.012Z,99.99
2023-02-06T02:33:17.008Z,99.99
2023-02-06T02:34:16.994Z,99.99
2023-02-06T02:35:16.982Z,99.99
2023-02-06T02:36:16.966Z,99.99
2023-02-06T02:37:16.963Z,99.99
2023-02-06T02:38:16.956Z,99.99
2023-02-06T02:39:16.950Z,99.99
2023-02-06T02:40:16.934Z,99.99
2023-02-06T02:41:16.918Z,99.99
2023-02-06T02:42:16.904Z,99.99
2023-02-06T02:43:16.914Z,99.99
2023-02-06T02:44:16.893Z,99.99
2023-02-06T02:45:16.879Z,99.99
2023-02-06T02:46:16.861Z,99.99
2023-02-06T02:47:16.858Z,99.99
2023-02-06T02:48:16.837Z,99.99
2023-02-06T02:49:16.838Z,99.99
2023-02-06T02:50:16.818Z,99.99
2023-02-06T02:51:16.817Z,99.99
2023-02-06T02:52:16.798Z,99.99
2023-02-06T02:53:16.794Z,99.99
2023-02-06T02:54:16.783Z,99.99
2023-02-06T02:55:16.772Z,99.99
2023-02-06T02:56:16.754Z,99.99
2023-02-06T02:57:16.748Z,99.99
2023-02-06T02:58:16.735Z,99.99
2023-02-06T02:59:16.734Z,99.99
2023-02-06T03:00:16.709Z,99.99
2023-02-06T03:01:16.738Z,99.99
2023-02-06T03:02:16.726Z,99.99
2023-02-06T03:03:16.685Z,99.99
2023-02-06T03:04:16.680Z,99.99
2023-02-06T03:05:16.666Z,99.99
2023-02-06T03:06:16.654Z,99.99
2023-02-06T03:07:16.646Z,99.99
2023-02-06T03:08:16.628Z,99.99
2023-02-06T03:09:16.625Z,99.99
2023-02-06T03:10:16.614Z,99.99
2023-02-06T03:11:16.599Z,99.99
2023-02-06T03:12:16.607Z,99.99
2023-02-06T03:13:16.576Z,99.99
2023-02-06T03:14:16.575Z,99.99
2023-02-06T03:15:16.556Z,99.99
2023-02-06T03:16:16.623Z,99.99
2023-02-06T03:17:16.544Z,99.99
2023-02-06T03:18:16.543Z,99.99
2023-02-06T03:19:16.524Z,99.99
2023-02-06T03:20:16.509Z,99.99
2023-02-06T03:21:16.494Z,99.99
2023-02-06T03:22:16.493Z,99.99
2023-02-06T03:23:16.474Z,99.99
2023-02-06T03:24:16.474Z,99.99
2023-02-06T03:25:16.451Z,99.99
2023-02-06T03:26:16.453Z,99.99
2023-02-06T03:27:16.432Z,99.99
2023-02-06T03:28:16.456Z,99.99
2023-02-06T03:29:16.419Z,99.99
2023-02-06T03:30:16.416Z,99.99
2023-02-06T03:31:16.441Z,99.99
2023-02-06T03:32:16.391Z,99.99
2023-02-06T03:33:16.373Z,99.99
2023-02-06T03:34:16.375Z,99.99
2023-02-06T03:35:16.357Z,99.99
2023-02-06T03:36:16.361Z,99.99
2023-02-06T03:37:16.334Z,99.99
2023-02-06T03:38:16.333Z,99.99
2023-02-06T03:39:16.322Z,99.99
2023-02-06T03:40:16.315Z,99.99
2023-02-06T03:41:16.307Z,99.99
2023-02-06T03:42:16.286Z,99.99
2023-02-06T03:43:16.274Z,99.99
2023-02-06T03:44:16.269Z,99.99
2023-02-06T03:45:16.251Z,99.99
2023-02-06T03:46:16.283Z,99.99
2023-02-06T03:47:16.229Z,99.99
2023-02-06T03:48:16.226Z,99.99
2023-02-06T03:49:16.213Z,99.99
2023-02-06T03:50:16.202Z,99.99
2023-02-06T03:51:16.192Z,99.99
2023-02-06T03:52:16.182Z,99.99
2023-02-06T03:53:16.172Z,99.99
2023-02-06T03:54:16.339Z,99.99
2023-02-06T03:55:16.149Z,99.99
2023-02-06T03:56:16.145Z,99.99
2023-02-06T03:57:16.129Z,99.99
2023-02-06T03:58:16.130Z,99.99
2023-02-06T03:59:16.117Z,99.99
2023-02-06T04:00:16.104Z,99.99
2023-02-06T04:01:16.100Z,99.99
2023-02-06T04:02:16.122Z,99.99
2023-02-06T04:03:16.069Z,99.99
2023-02-06T04:04:16.079Z,99.99
2023-02-06T04:05:16.060Z,99.99
2023-02-06T04:06:16.042Z,99.99
2023-02-06T04:07:16.032Z,99.99
2023-02-06T04:08:16.031Z,99.99
2023-02-06T04:09:16.014Z,99.96
2023-02-06T04:10:16.004Z,99.96
2023-02-06T04:11:15.988Z,99.96
2023-02-06T04:12:15.979Z,99.99
2023-02-06T04:13:15.970Z,99.99
2023-02-06T04:14:15.965Z,99.99
2023-02-06T04:15:15.949Z,99.99
2023-02-06T04:16:15.975Z,99.99
2023-02-06T04:17:27.328Z,99.99
2023-02-06T04:18:15.924Z,99.99
2023-02-06T04:19:15.908Z,99.90
2023-02-06T04:20:15.896Z,99.99
2023-02-06T04:21:15.882Z,99.99
2023-02-06T04:22:15.876Z,99.99
2023-02-06T04:23:15.869Z,99.99
2023-02-06T04:24:15.864Z,99.99
2023-02-06T04:25:15.844Z,99.99
2023-02-06T04:26:15.837Z,99.99
2023-02-06T04:27:15.822Z,99.99
2023-02-06T04:28:15.879Z,99.99
2023-02-06T04:29:15.806Z,99.99
2023-02-06T04:30:15.793Z,99.99
2023-02-06T04:31:15.901Z,99.99
2023-02-06T04:32:15.776Z,99.99
2023-02-06T04:33:15.756Z,99.99
2023-02-06T04:34:15.781Z,99.99
2023-02-06T04:35:15.738Z,99.80
2023-02-06T04:36:15.732Z,99.90
2023-02-06T04:37:15.722Z,99.99
2023-02-06T04:38:15.716Z,99.99
2023-02-06T04:39:15.694Z,99.99
2023-02-06T04:40:15.703Z,99.99
2023-02-06T04:41:15.675Z,99.99
2023-02-06T04:42:15.669Z,99.99
2023-02-06T04:43:15.667Z,99.99
2023-02-06T04:44:15.652Z,99.99
2023-02-06T04:45:15.638Z,99.99
2023-02-06T04:46:15.687Z,99.99
2023-02-06T04:47:15.617Z,99.99
2023-02-06T04:48:15.609Z,99.99
2023-02-06T04:49:15.591Z,99.99
2023-02-06T04:50:15.599Z,99.99
2023-02-06T04:51:15.578Z,99.80
2023-02-06T04:52:15.580Z,99.27
2023-02-06T04:53:15.560Z,99.17
2023-02-06T04:54:15.548Z,99.38
2023-02-06T04:55:15.540Z,99.48
2023-02-06T04:56:15.528Z,98.96
2023-02-06T04:57:15.517Z,99.07
2023-02-06T04:58:15.518Z,99.38
2023-02-06T04:59:15.491Z,99.48
2023-02-06T05:00:15.505Z,99.48
2023-02-06T05:01:15.551Z,99.38
2023-02-06T05:02:15.483Z,99.48
2023-02-06T05:03:15.450Z,99.22
2023-02-06T05:04:15.444Z,99.11
2023-02-06T05:05:15.437Z,99.22
2023-02-06T05:06:15.427Z,99.22
2023-02-06T05:07:15.405Z,99.11
2023-02-06T05:08:15.396Z,99.11
2023-02-06T05:09:15.388Z,99.11
2023-02-06T05:10:15.386Z,99.01
2023-02-06T05:11:15.363Z,98.90
2023-02-06T05:12:15.359Z,99.11
2023-02-06T05:13:15.342Z,99.01
2023-02-06T05:14:15.335Z,99.11
2023-02-06T05:15:15.330Z,99.32
2023-02-06T05:16:15.351Z,99.53
2023-02-06T05:17:15.298Z,99.53
2023-02-06T05:18:15.296Z,99.53
2023-02-06T05:19:15.282Z,99.63
2023-02-06T05:20:15.282Z,99.63
2023-02-06T05:21:15.261Z,99.74
2023-02-06T05:22:15.256Z,99.63
2023-02-06T05:23:15.238Z,99.53
2023-02-06T05:24:15.230Z,99.43
2023-02-06T05:25:15.227Z,99.63
2023-02-06T05:26:15.209Z,99.53
2023-02-06T05:27:15.201Z,99.63
2023-02-06T05:28:15.219Z,99.43
2023-02-06T05:29:15.175Z,99.32
2023-02-06T05:30:15.181Z,99.32
2023-02-06T05:31:15.281Z,99.32
2023-02-06T05:32:15.146Z,99.22
2023-02-06T05:33:15.136Z,99.32
2023-02-06T05:34:15.130Z,99.11
2023-02-06T05:35:15.124Z,99.22
2023-02-06T05:36:15.114Z,99.11
2023-02-06T05:37:15.099Z,99.01
2023-02-06T05:38:15.088Z,98.90
2023-02-06T05:39:15.075Z,98.90
2023-02-06T05:40:15.068Z,99.11
2023-02-06T05:41:15.068Z,99.22
2023-02-06T05:42:15.064Z,98.90
2023-02-06T05:43:15.035Z,98.80
2023-02-06T05:44:15.034Z,98.69
2023-02-06T05:45:15.016Z,98.80
2023-02-06T05:46:15.039Z,99.01
2023-02-06T05:47:15.006Z,99.01
2023-02-06T05:48:14.986Z,99.01
2023-02-06T05:49:14.983Z,99.11
2023-02-06T05:50:14.986Z,99.22
2023-02-06T05:51:14.948Z,99.11
2023-02-06T05:52:14.945Z,99.01
2023-02-06T05:53:14.930Z,99.01
2023-02-06T05:54:14.930Z,99.01
2023-02-06T05:55:14.916Z,99.01
2023-02-06T05:56:14.905Z,99.11
2023-02-06T05:57:14.891Z,99.22
2023-02-06T05:58:14.890Z,99.32
2023-02-06T05:59:14.877Z,99.32
2023-02-06T06:00:14.867Z,99.22
2023-02-06T06:01:14.854Z,99.32
2023-02-06T06:02:14.847Z,99.22
2023-02-06T06:03:14.831Z,99.32
2023-02-06T06:04:14.848Z,99.22
2023-02-06T06:05:14.854Z,99.11
2023-02-06T06:06:14.807Z,99.22
2023-02-06T06:07:14.792Z,99.32
2023-02-06T06:08:14.784Z,99.32
2023-02-06T06:09:14.773Z,99.43
2023-02-06T06:10:14.764Z,99.53
2023-02-06T06:11:14.757Z,99.22
2023-02-06T06:12:14.746Z,98.80
2023-02-06T06:13:14.730Z,98.59
2023-02-06T06:14:14.726Z,98.80
2023-02-06T06:15:14.709Z,98.90
2023-02-06T06:16:14.753Z,98.90
2023-02-06T06:17:14.736Z,98.90
2023-02-06T06:18:14.689Z,98.80
2023-02-06T06:19:14.663Z,98.80
2023-02-06T06:20:14.606Z,99.01
2023-02-06T06:21:14.601Z,99.11
2023-02-06T06:22:14.592Z,98.90
2023-02-06T06:23:14.573Z,99.01
2023-02-06T06:24:14.567Z,99.01
2023-02-06T06:25:14.881Z,99.01
2023-02-06T06:26:14.557Z,99.11
2023-02-06T06:27:14.528Z,99.22
2023-02-06T06:28:14.630Z,99.22
2023-02-06T06:29:14.518Z,99.01
2023-02-06T06:30:14.508Z,99.01
2023-02-06T06:31:14.600Z,99.01
2023-02-06T06:32:14.479Z,99.11
2023-02-06T06:33:14.467Z,99.11
2023-02-06T06:34:14.464Z,99.32
2023-02-06T06:35:14.452Z,99.43
2023-02-06T06:36:14.658Z,99.63
2023-02-06T06:37:14.422Z,99.74
2023-02-06T06:38:14.416Z,99.32
2023-02-06T06:39:14.401Z,99.22
2023-02-06T06:40:14.403Z,99.22
2023-02-06T06:41:14.390Z,99.22
2023-02-06T06:42:14.376Z,99.22
2023-02-06T06:43:14.365Z,99.22
2023-02-06T06:44:14.372Z,99.32
2023-02-06T06:45:14.359Z,99.32
2023-02-06T06:46:14.340Z,98.90
2023-02-06T06:47:14.320Z,99.11
2023-02-06T06:48:14.315Z,99.22
2023-02-06T06:49:14.303Z,99.32
2023-02-06T06:50:14.298Z,99.01
2023-02-06T06:51:14.281Z,99.22
2023-02-06T06:52:24.377Z,99.32
2023-02-06T06:53:14.275Z,99.32
2023-02-06T06:54:14.250Z,99.22
2023-02-06T06:55:14.234Z,99.01
2023-02-06T06:56:14.230Z,98.90
2023-02-06T06:57:14.214Z,98.80
2023-02-06T06:58:14.231Z,98.59
2023-02-06T06:59:14.190Z,98.59
2023-02-06T07:00:14.193Z,98.69
2023-02-06T07:01:14.206Z,98.59
2023-02-06T07:02:14.172Z,98.28
2023-02-06T07:03:14.221Z,98.18
2023-02-06T07:04:14.163Z,97.86
2023-02-06T07:05:14.141Z,97.86
2023-02-06T07:06:14.124Z,97.86
2023-02-06T07:07:14.133Z,97.97
2023-02-06T07:08:14.105Z,97.86
2023-02-06T07:09:14.091Z,97.92
2023-02-06T07:10:14.107Z,97.86
2023-02-06T07:11:14.070Z,97.55
2023-02-06T07:12:14.061Z,97.86
2023-02-06T07:13:14.049Z,97.97
2023-02-06T07:14:14.043Z,97.65
2023-02-06T07:15:14.035Z,97.34
2023-02-06T07:16:14.044Z,97.19
2023-02-06T07:17:14.008Z,97.19
2023-02-06T07:18:14.001Z,97.30
2023-02-06T07:19:13.999Z,97.50
2023-02-06T07:20:13.986Z,97.19
2023-02-06T07:21:13.975Z,97.30
2023-02-06T07:22:13.962Z,97.40
2023-02-06T07:23:13.954Z,97.40
2023-02-06T07:24:13.941Z,97.50
2023-02-06T07:25:13.941Z,97.81
2023-02-06T07:26:13.914Z,97.61
2023-02-06T07:27:13.904Z,97.40
2023-02-06T07:28:13.930Z,97.71
2023-02-06T07:29:13.884Z,97.81
2023-02-06T07:30:13.889Z,97.81
2023-02-06T07:31:13.862Z,98.02
2023-02-06T07:32:13.850Z,98.23
2023-02-06T07:33:13.849Z,98.02
2023-02-06T07:34:13.834Z,97.71
2023-02-06T07:35:13.829Z,97.61
2023-02-06T07:36:13.813Z,97.55
2023-02-06T07:37:13.809Z,97.30
2023-02-06T07:38:13.787Z,97.40
2023-02-06T07:39:13.783Z,97.30
2023-02-06T07:40:13.775Z,97.40
2023-02-06T07:41:13.763Z,97.50
2023-02-06T07:42:13.749Z,97.09
2023-02-06T07:43:13.749Z,97.30
2023-02-06T07:44:13.729Z,97.50
2023-02-06T07:45:13.749Z,97.61
2023-02-06T07:46:13.755Z,97.61
2023-02-06T07:47:13.703Z,97.40
2023-02-06T07:48:13.686Z,97.50
2023-02-06T07:49:13.681Z,97.40
2023-02-06T07:50:13.667Z,96.98
2023-02-06T07:51:13.656Z,96.25
2023-02-06T07:52:13.648Z,96.04
2023-02-06T07:53:13.640Z,96.21
2023-02-06T07:54:13.625Z,96.46
2023-02-06T07:55:13.620Z,96.36
2023-02-06T07:56:13.601Z,96.36
2023-02-06T07:57:13.601Z,96.67
2023-02-06T07:58:13.582Z,96.56
2023-02-06T07:59:13.577Z,96.52
2023-02-06T08:00:13.568Z,96.31
2023-02-06T08:01:13.575Z,96.36
2023-02-06T08:02:13.538Z,96.21
2023-02-06T08:03:13.537Z,96.04
2023-02-06T08:04:13.549Z,96.15
2023-02-06T08:05:13.522Z,96.15
2023-02-06T08:06:13.499Z,96.04
2023-02-06T08:07:13.495Z,96.36
2023-02-06T08:08:13.483Z,95.52
2023-02-06T08:09:13.485Z,95.62
2023-02-06T08:10:13.474Z,96.04
2023-02-06T08:11:13.465Z,96.04
2023-02-06T08:12:13.434Z,95.83
2023-02-06T08:13:13.436Z,95.94
2023-02-06T08:14:13.418Z,95.21
2023-02-06T08:15:13.412Z,95.31
2023-02-06T08:16:13.470Z,95.73
2023-02-06T08:17:13.389Z,96.15
2023-02-06T08:18:13.386Z,96.31
2023-02-06T08:19:13.370Z,96.25
2023-02-06T08:20:13.367Z,95.83
2023-02-06T08:21:13.345Z,95.17
2023-02-06T08:22:13.337Z,95.48
2023-02-06T08:23:13.337Z,95.68
2023-02-06T08:24:13.319Z,95.79
2023-02-06T08:25:13.313Z,95.58
2023-02-06T08:26:13.297Z,95.48
2023-02-06T08:27:13.379Z,95.37
2023-02-06T08:28:13.307Z,94.75
2023-02-06T08:29:13.264Z,94.23
2023-02-06T08:30:13.265Z,94.33
2023-02-06T08:31:13.322Z,94.02
2023-02-06T08:32:13.234Z,94.23
2023-02-06T08:33:13.224Z,94.54
2023-02-06T08:34:13.217Z,94.02
2023-02-06T08:35:13.217Z,93.81
2023-02-06T08:36:13.195Z,93.91
2023-02-06T08:37:13.353Z,93.81
2023-02-06T08:38:13.170Z,94.33
2023-02-06T08:39:13.161Z,93.91
2023-02-06T08:40:13.157Z,93.96
2023-02-06T08:41:13.140Z,93.91
2023-02-06T08:42:13.130Z,93.71
2023-02-06T08:43:13.130Z,93.71
2023-02-06T08:44:13.106Z,94.12
2023-02-06T08:45:13.115Z,93.81
2023-02-06T08:46:13.146Z,94.12
2023-02-06T08:47:13.085Z,94.75
2023-02-06T08:48:13.071Z,94.33
2023-02-06T08:49:13.069Z,93.71
2023-02-06T08:50:13.116Z,93.60
2023-02-06T08:51:13.044Z,94.23
2023-02-06T08:52:13.026Z,93.60
2023-02-06T08:53:13.021Z,93.81
2023-02-06T08:54:13.010Z,94.33
2023-02-06T08:55:13.025Z,93.91
2023-02-06T08:56:12.982Z,93.40
2023-02-06T08:57:12.980Z,93.91
2023-02-06T08:58:12.961Z,93.98
2023-02-06T08:59:12.978Z,92.93
2023-02-06T09:00:12.966Z,92.93
2023-02-06T09:01:13.014Z,91.58
2023-02-06T09:02:12.950Z,92.52
2023-02-06T09:03:12.915Z,92.93
2023-02-06T09:04:12.914Z,92.06
2023-02-06T09:05:12.907Z,90.95
2023-02-06T09:06:12.907Z,91.37
2023-02-06T09:07:12.883Z,91.58
2023-02-06T09:08:12.867Z,91.06
2023-02-06T09:09:12.883Z,91.47
2023-02-06T09:10:26.642Z,90.75
2023-02-06T09:11:12.848Z,89.76
2023-02-06T09:12:12.832Z,90.91
2023-02-06T09:13:12.835Z,90.81
2023-02-06T09:14:12.805Z,91.02
2023-02-06T09:15:12.799Z,91.02
2023-02-06T09:16:12.814Z,90.39
2023-02-06T09:17:12.778Z,89.98
2023-02-06T09:18:12.760Z,89.94
2023-02-06T09:19:12.775Z,89.31
2023-02-06T09:20:12.740Z,87.75
2023-02-06T09:21:12.741Z,87.43
2023-02-06T09:22:12.715Z,88.89
2023-02-06T09:23:12.713Z,88.54
2023-02-06T09:24:12.708Z,89.41
2023-02-06T09:25:12.688Z,89.58
2023-02-06T09:26:12.685Z,87.23
2023-02-06T09:27:12.679Z,87.85
2023-02-06T09:28:12.732Z,87.96
2023-02-06T09:29:12.648Z,87.43
2023-02-06T09:30:12.631Z,87.16
2023-02-06T09:31:12.721Z,88.58
2023-02-06T09:32:12.615Z,87.12
2023-02-06T09:33:12.604Z,87.12
2023-02-06T09:34:12.591Z,89.00
2023-02-06T09:35:12.592Z,88.27
2023-02-06T09:36:12.591Z,88.06
2023-02-06T09:37:12.578Z,88.06
2023-02-06T09:38:12.559Z,87.37
2023-02-06T09:39:12.559Z,88.48
2023-02-06T09:40:12.537Z,89.31
2023-02-06T09:41:12.524Z,87.85
2023-02-06T09:42:12.513Z,88.06
2023-02-06T09:43:12.500Z,88.02
2023-02-06T09:44:12.497Z,85.31
2023-02-06T09:45:12.481Z,85.98
2023-02-06T09:46:12.500Z,86.98
2023-02-06T09:47:12.468Z,85.63
2023-02-06T09:48:12.446Z,85.63
2023-02-06T09:49:12.441Z,86.15
2023-02-06T09:50:12.423Z,86.67
2023-02-06T09:51:12.428Z,86.15
2023-02-06T09:52:12.407Z,87.46
2023-02-06T09:53:12.395Z,86.94
2023-02-06T09:54:12.386Z,87.88
2023-02-06T09:55:12.379Z,87.15
2023-02-06T09:56:12.363Z,87.25
2023-02-06T09:57:12.364Z,85.28
2023-02-06T09:58:12.344Z,85.38
2023-02-06T09:59:12.338Z,84.55
2023-02-06T10:00:12.338Z,84.75
2023-02-06T10:01:12.322Z,87.35
2023-02-06T10:02:12.302Z,86.21
2023-02-06T10:03:12.296Z,85.69
2023-02-06T10:04:12.333Z,85.96
2023-02-06T10:05:12.277Z,83.82
2023-02-06T10:06:12.268Z,85.38
2023-02-06T10:07:12.262Z,85.59
2023-02-06T10:08:12.244Z,85.17
2023-02-06T10:09:12.253Z,83.96
2023-02-06T10:10:12.230Z,84.48
2023-02-06T10:11:12.223Z,84.59
2023-02-06T10:12:12.202Z,84.69
2023-02-06T10:13:12.198Z,85.00
2023-02-06T10:14:12.183Z,84.17
2023-02-06T10:15:12.177Z,84.59
2023-02-06T10:16:12.244Z,85.59
2023-02-06T10:17:12.157Z,84.44
2023-02-06T10:18:12.146Z,84.86
2023-02-06T10:19:12.145Z,88.19
2023-02-06T10:20:12.113Z,85.69
2023-02-06T10:21:12.141Z,84.61
2023-02-06T10:22:12.095Z,84.82
2023-02-06T10:23:12.101Z,83.47
2023-02-06T10:24:12.077Z,83.61
2023-02-06T10:25:12.203Z,85.28
2023-02-06T10:26:12.072Z,85.28
2023-02-06T10:27:12.098Z,84.86
2023-02-06T10:28:12.077Z,85.06
2023-02-06T10:29:12.037Z,84.03
2023-02-06T10:30:12.016Z,84.23
2023-02-06T10:31:12.072Z,83.40
2023-02-06T10:32:12.018Z,83.82
2023-02-06T10:33:24.861Z,84.96
2023-02-06T10:34:12.009Z,83.72
2023-02-06T10:35:11.973Z,83.92
2023-02-06T10:36:12.005Z,85.69
2023-02-06T10:37:11.958Z,84.65
2023-02-06T10:38:11.938Z,84.92
2023-02-06T10:39:11.932Z,83.26
2023-02-06T10:40:11.916Z,83.26
2023-02-06T10:41:11.939Z,83.89
2023-02-06T10:42:11.970Z,84.09
2023-02-06T10:43:11.895Z,84.72
2023-02-06T10:44:11.875Z,84.92
2023-02-06T10:45:19.969Z,83.58
2023-02-06T10:46:11.867Z,83.26
2023-02-06T10:47:11.854Z,83.92
2023-02-06T10:48:11.837Z,83.78
2023-02-06T10:49:11.843Z,85.34
2023-02-06T10:50:11.824Z,84.61
2023-02-06T10:51:11.826Z,83.84
2023-02-06T10:52:11.808Z,84.37
2023-02-06T10:53:11.814Z,85.30
2023-02-06T10:54:11.786Z,84.58
2023-02-06T10:55:11.775Z,83.60
2023-02-06T10:56:11.754Z,82.60
2023-02-06T10:57:11.755Z,84.12
2023-02-06T10:58:11.738Z,85.36
2023-02-06T10:59:11.730Z,85.36
2023-02-06T11:00:11.733Z,83.50
2023-02-06T11:01:25.188Z,83.08
2023-02-06T11:02:11.747Z,82.04
2023-02-06T11:03:11.695Z,83.39
2023-02-06T11:04:11.691Z,83.70
2023-02-06T11:05:11.701Z,83.08
2023-02-06T11:06:11.663Z,82.56
2023-02-06T11:07:11.655Z,83.70
2023-02-06T11:08:11.645Z,84.43
2023-02-06T11:09:11.634Z,84.29
2023-02-06T11:10:11.610Z,81.63
2023-02-06T11:11:11.600Z,81.73
2023-02-06T11:12:11.606Z,81.73
2023-02-06T11:13:11.588Z,82.67
2023-02-06T11:14:11.575Z,83.18
2023-02-06T11:15:11.576Z,83.60
2023-02-06T11:16:11.589Z,82.15
2023-02-06T11:17:11.549Z,82.15
2023-02-06T11:18:11.543Z,81.63
2023-02-06T11:19:11.521Z,82.15
2023-02-06T11:20:11.551Z,82.15
2023-02-06T11:21:11.531Z,83.87
2023-02-06T11:22:11.494Z,83.46
2023-02-06T11:23:11.493Z,82.42
2023-02-06T11:24:11.465Z,82.63
2023-02-06T11:25:11.465Z,82.53
2023-02-06T11:26:11.449Z,83.56
2023-02-06T11:27:11.459Z,81.66
2023-02-06T11:28:11.504Z,83.01
2023-02-06T11:29:11.421Z,80.52
2023-02-06T11:30:11.416Z,80.79
2023-02-06T11:31:11.395Z,80.79
2023-02-06T11:32:11.392Z,80.16
2023-02-06T11:33:11.375Z,79.58
2023-02-06T11:34:11.371Z,80.93
2023-02-06T11:35:11.365Z,81.45
2023-02-06T11:36:11.340Z,81.97
2023-02-06T11:37:11.387Z,80.21
2023-02-06T11:38:11.332Z,80.31
2023-02-06T11:39:11.309Z,79.48
2023-02-06T11:40:11.308Z,80.00
2023-02-06T11:41:11.548Z,80.00
2023-02-06T11:42:11.294Z,80.62
2023-02-06T11:43:11.265Z,82.80
2023-02-06T11:44:11.258Z,81.72
2023-02-06T11:45:11.248Z,80.06
2023-02-06T11:46:11.327Z,82.86
2023-02-06T11:47:11.229Z,81.37
2023-02-06T11:48:11.225Z,79.71
2023-02-06T11:49:11.201Z,80.02
2023-02-06T11:50:11.234Z,79.24
2023-02-06T11:51:11.189Z,80.23
2023-02-06T11:52:11.188Z,80.65
2023-02-06T11:53:11.166Z,79.51
2023-02-06T11:54:11.171Z,80.33
2023-02-06T11:55:11.147Z,80.96
2023-02-06T11:56:11.152Z,80.92
2023-02-06T11:57:11.127Z,78.68
2023-02-06T11:58:11.124Z,79.30
2023-02-06T11:59:11.102Z,79.92
2023-02-06T12:00:11.112Z,80.85
2023-02-06T12:01:11.086Z,80.92
2023-02-06T12:02:11.102Z,79.99
2023-02-06T12:03:11.095Z,80.30
2023-02-06T12:04:11.054Z,80.92
2023-02-06T12:05:11.046Z,79.47
2023-02-06T12:06:11.046Z,79.78
2023-02-06T12:07:11.049Z,80.16
2023-02-06T12:08:11.012Z,80.16
2023-02-06T12:09:11.007Z,79.54
2023-02-06T12:10:10.996Z,79.85
2023-02-06T12:11:12.415Z,80.22
2023-02-06T12:12:10.978Z,78.05
2023-02-06T12:13:10.954Z,77.05
2023-02-06T12:14:10.972Z,77.67
2023-02-06T12:15:36.252Z,77.78
2023-02-06T12:16:10.945Z,78.30
2023-02-06T12:17:10.925Z,79.02
2023-02-06T12:18:10.921Z,78.67
2023-02-06T12:19:10.902Z,77.57
2023-02-06T12:20:10.900Z,76.95
2023-02-06T12:21:10.879Z,77.26
2023-02-06T12:22:10.932Z,76.74
2023-02-06T12:23:10.851Z,76.12
2023-02-06T12:24:10.857Z,77.67
2023-02-06T12:25:10.851Z,76.23
2023-02-06T12:26:10.838Z,76.32
2023-02-06T12:27:10.822Z,75.50
2023-02-06T12:28:10.863Z,75.19
2023-02-06T12:29:10.802Z,77.98
2023-02-06T12:30:10.864Z,78.67
2023-02-06T12:31:10.842Z,76.71
2023-02-06T12:32:10.792Z,75.15
2023-02-06T12:33:10.754Z,75.78
2023-02-06T12:34:10.745Z,76.15
2023-02-06T12:35:10.782Z,75.63
2023-02-06T12:36:10.724Z,74.60
2023-02-06T12:37:10.758Z,73.81
2023-02-06T12:38:10.700Z,74.60
2023-02-06T12:39:10.686Z,75.26
2023-02-06T12:40:10.798Z,74.81
2023-02-06T12:41:10.667Z,74.81
2023-02-06T12:42:10.754Z,75.95
2023-02-06T12:43:10.642Z,76.05
2023-02-06T12:44:10.655Z,73.77
2023-02-06T12:45:10.633Z,73.98
2023-02-06T12:46:10.723Z,73.15
2023-02-06T12:47:10.614Z,74.71
2023-02-06T12:48:12.273Z,75.22
2023-02-06T12:49:10.582Z,73.67
2023-02-06T12:50:10.622Z,73.54
2023-02-06T12:51:10.558Z,72.74
2023-02-06T12:52:10.565Z,73.67